KLVM/LVM METAR and TAF weather

Enter ICAO airport designator
Station Type Date Time Source
KLVM METAR 2022/01/29 09:53 UTC NOAA

KLVM 290953Z AUTO 27026G40KT 10SM CLR 04/M18 A3019 RMK AO2 PK WND 27040/0949 SLP232 T00391178


Station Type Date Time Source
KLVM Decoded METAR 2022/01/29 09:53 UTC NOAA

LIVINGSTON MISSION FIELD, MT, United States (KLVM) 45-42N 110-26W 1418M
Jan 29, 2022 - 04:53 AM EST / 2022.01.29 0953 UTC
Wind: from the W (270 degrees) at 30 MPH (26 KT) gusting to 46 MPH (40 KT):0
Visibility: 10 mile(s):0
Sky conditions: clear
Temperature: 39.0 F (3.9 C)
Dew Point: -0.0 F (-17.8 C)
Relative Humidity: 18%
Pressure (altimeter): 30.19 in. Hg (1022 hPa)
ob: KLVM 290953Z AUTO 27026G40KT 10SM CLR 04/M18 A3019 RMK AO2 PK WND 27040/0949 SLP232 T00391178
cycle: 10

Station Type Date Time Source
KLVM TAF 2022/01/29 06:36 UTC NOAA

TAF KLVM 290535Z 2906/3006 22032G50KT P6SM BKN200
FM291500 23028G40KT P6SM FEW200

Example: see airport list